sensor_id;sensor_type;location;lat;lon;timestamp;P1;durP1;ratioP1;P2;durP2;ratioP2
11791;SDS011;5953;52.372;9.918;2023-09-07T00:01:06;5.77;;;3.80;;
11791;SDS011;5953;52.372;9.918;2023-09-07T00:03:34;5.40;;;3.80;;
11791;SDS011;5953;52.372;9.918;2023-09-07T00:06:05;4.43;;;3.80;;
11791;SDS011;5953;52.372;9.918;2023-09-07T00:08:33;4.67;;;3.67;;
11791;SDS011;5953;52.372;9.918;2023-09-07T00:11:04;4.87;;;4.40;;
11791;SDS011;5953;52.372;9.918;2023-09-07T00:13:32;5.00;;;4.17;;
11791;SDS011;5953;52.372;9.918;2023-09-07T00:16:00;6.83;;;3.93;;
11791;SDS011;5953;52.372;9.918;2023-09-07T00:18:31;8.23;;;4.27;;
11791;SDS011;5953;52.372;9.918;2023-09-07T00:20:59;7.53;;;3.77;;
11791;SDS011;5953;52.372;9.918;2023-09-07T00:23:28;9.63;;;5.10;;
11791;SDS011;5953;52.372;9.918;2023-09-07T00:25:56;8.13;;;4.60;;
11791;SDS011;5953;52.372;9.918;2023-09-07T00:28:24;9.00;;;3.97;;
11791;SDS011;5953;52.372;9.918;2023-09-07T00:30:52;9.13;;;4.63;;
11791;SDS011;5953;52.372;9.918;2023-09-07T00:33:20;5.93;;;4.43;;
11791;SDS011;5953;52.372;9.918;2023-09-07T00:35:49;8.60;;;4.90;;
11791;SDS011;5953;52.372;9.918;2023-09-07T00:38:17;6.60;;;4.43;;
11791;SDS011;5953;52.372;9.918;2023-09-07T00:40:45;6.87;;;4.53;;
11791;SDS011;5953;52.372;9.918;2023-09-07T00:43:13;11.07;;;4.57;;
11791;SDS011;5953;52.372;9.918;2023-09-07T00:45:41;10.17;;;5.53;;
11791;SDS011;5953;52.372;9.918;2023-09-07T00:48:09;8.70;;;4.60;;
11791;SDS011;5953;52.372;9.918;2023-09-07T00:50:40;7.27;;;4.90;;
11791;SDS011;5953;52.372;9.918;2023-09-07T00:53:09;10.27;;;4.70;;
11791;SDS011;5953;52.372;9.918;2023-09-07T00:55:37;9.17;;;4.97;;
11791;SDS011;5953;52.372;9.918;2023-09-07T01:00:53;7.93;;;4.83;;
11791;SDS011;5953;52.372;9.918;2023-09-07T01:03:21;7.33;;;4.57;;
11791;SDS011;5953;52.372;9.918;2023-09-07T01:05:51;8.63;;;4.40;;
11791;SDS011;5953;52.372;9.918;2023-09-07T01:08:24;6.90;;;4.63;;
11791;SDS011;5953;52.372;9.918;2023-09-07T01:10:56;11.83;;;4.53;;
11791;SDS011;5953;52.372;9.918;2023-09-07T01:13:24;10.03;;;4.10;;
11791;SDS011;5953;52.372;9.918;2023-09-07T01:15:52;9.53;;;4.70;;
11791;SDS011;5953;52.372;9.918;2023-09-07T01:18:20;7.20;;;4.63;;
11791;SDS011;5953;52.372;9.918;2023-09-07T01:21:03;10.30;;;4.63;;
11791;SDS011;5953;52.372;9.918;2023-09-07T01:23:35;5.70;;;4.50;;
11791;SDS011;5953;52.372;9.918;2023-09-07T01:26:03;6.17;;;4.60;;
11791;SDS011;5953;52.372;9.918;2023-09-07T01:28:33;6.43;;;4.40;;
11791;SDS011;5953;52.372;9.918;2023-09-07T01:31:01;8.07;;;4.80;;
11791;SDS011;5953;52.372;9.918;2023-09-07T01:33:29;7.67;;;5.23;;
11791;SDS011;5953;52.372;9.918;2023-09-07T01:35:57;11.07;;;4.70;;
11791;SDS011;5953;52.372;9.918;2023-09-07T01:38:25;7.73;;;5.23;;
11791;SDS011;5953;52.372;9.918;2023-09-07T01:40:55;8.67;;;5.10;;
11791;SDS011;5953;52.372;9.918;2023-09-07T01:43:23;8.87;;;4.87;;
11791;SDS011;5953;52.372;9.918;2023-09-07T01:45:50;10.57;;;5.47;;
11791;SDS011;5953;52.372;9.918;2023-09-07T01:48:18;12.97;;;5.60;;
11791;SDS011;5953;52.372;9.918;2023-09-07T01:50:46;9.10;;;5.53;;
11791;SDS011;5953;52.372;9.918;2023-09-07T01:53:14;10.47;;;5.27;;
11791;SDS011;5953;52.372;9.918;2023-09-07T01:55:42;8.90;;;5.33;;
11791;SDS011;5953;52.372;9.918;2023-09-07T01:58:11;8.73;;;5.20;;
11791;SDS011;5953;52.372;9.918;2023-09-07T02:00:39;8.43;;;5.17;;
11791;SDS011;5953;52.372;9.918;2023-09-07T02:03:07;10.97;;;5.00;;
11791;SDS011;5953;52.372;9.918;2023-09-07T02:05:35;6.37;;;5.20;;
11791;SDS011;5953;52.372;9.918;2023-09-07T02:08:03;8.87;;;5.10;;
11791;SDS011;5953;52.372;9.918;2023-09-07T02:10:31;6.07;;;4.77;;
11791;SDS011;5953;52.372;9.918;2023-09-07T02:13:00;7.63;;;5.40;;
11791;SDS011;5953;52.372;9.918;2023-09-07T02:15:29;6.03;;;4.87;;
11791;SDS011;5953;52.372;9.918;2023-09-07T02:17:57;7.07;;;5.37;;
11791;SDS011;5953;52.372;9.918;2023-09-07T02:20:25;6.23;;;5.40;;
11791;SDS011;5953;52.372;9.918;2023-09-07T02:22:53;7.10;;;5.43;;
11791;SDS011;5953;52.372;9.918;2023-09-07T02:25:21;6.37;;;5.57;;
11791;SDS011;5953;52.372;9.918;2023-09-07T02:27:49;7.20;;;5.17;;
11791;SDS011;5953;52.372;9.918;2023-09-07T02:30:16;7.70;;;5.60;;
11791;SDS011;5953;52.372;9.918;2023-09-07T02:32:46;6.53;;;5.70;;
11791;SDS011;5953;52.372;9.918;2023-09-07T02:35:14;8.13;;;6.10;;
11791;SDS011;5953;52.372;9.918;2023-09-07T02:37:42;6.40;;;5.80;;
11791;SDS011;5953;52.372;9.918;2023-09-07T02:40:10;6.33;;;5.73;;
11791;SDS011;5953;52.372;9.918;2023-09-07T02:42:38;6.20;;;5.60;;
11791;SDS011;5953;52.372;9.918;2023-09-07T02:45:06;7.00;;;6.30;;
11791;SDS011;5953;52.372;9.918;2023-09-07T02:47:34;7.67;;;5.70;;
11791;SDS011;5953;52.372;9.918;2023-09-07T02:50:04;7.83;;;5.40;;
11791;SDS011;5953;52.372;9.918;2023-09-07T02:52:32;6.60;;;5.93;;
11791;SDS011;5953;52.372;9.918;2023-09-07T02:55:00;8.23;;;6.43;;
11791;SDS011;5953;52.372;9.918;2023-09-07T02:57:30;7.23;;;6.53;;
11791;SDS011;5953;52.372;9.918;2023-09-07T02:59:58;7.77;;;7.03;;
11791;SDS011;5953;52.372;9.918;2023-09-07T03:02:27;8.33;;;5.97;;
11791;SDS011;5953;52.372;9.918;2023-09-07T03:04:56;8.67;;;6.33;;
11791;SDS011;5953;52.372;9.918;2023-09-07T03:07:26;7.97;;;6.63;;
11791;SDS011;5953;52.372;9.918;2023-09-07T03:09:55;7.33;;;6.50;;
11791;SDS011;5953;52.372;9.918;2023-09-07T03:12:23;8.80;;;6.73;;
11791;SDS011;5953;52.372;9.918;2023-09-07T03:14:51;7.83;;;6.37;;
11791;SDS011;5953;52.372;9.918;2023-09-07T03:17:19;7.30;;;6.60;;
11791;SDS011;5953;52.372;9.918;2023-09-07T03:19:47;8.83;;;6.00;;
11791;SDS011;5953;52.372;9.918;2023-09-07T03:22:15;10.60;;;6.17;;
11791;SDS011;5953;52.372;9.918;2023-09-07T03:24:45;6.63;;;5.93;;
11791;SDS011;5953;52.372;9.918;2023-09-07T03:27:12;7.27;;;6.37;;
11791;SDS011;5953;52.372;9.918;2023-09-07T03:29:40;6.57;;;5.87;;
11791;SDS011;5953;52.372;9.918;2023-09-07T03:32:08;10.27;;;6.47;;
11791;SDS011;5953;52.372;9.918;2023-09-07T03:34:36;9.03;;;6.47;;
11791;SDS011;5953;52.372;9.918;2023-09-07T03:37:04;7.27;;;6.07;;
11791;SDS011;5953;52.372;9.918;2023-09-07T03:39:32;7.03;;;6.33;;
11791;SDS011;5953;52.372;9.918;2023-09-07T03:42:02;7.57;;;6.77;;
11791;SDS011;5953;52.372;9.918;2023-09-07T03:44:30;8.23;;;6.47;;
11791;SDS011;5953;52.372;9.918;2023-09-07T03:46:57;8.03;;;6.17;;
11791;SDS011;5953;52.372;9.918;2023-09-07T03:49:25;7.37;;;6.10;;
11791;SDS011;5953;52.372;9.918;2023-09-07T03:51:53;7.03;;;6.33;;
11791;SDS011;5953;52.372;9.918;2023-09-07T03:54:21;7.83;;;6.57;;
11791;SDS011;5953;52.372;9.918;2023-09-07T03:56:48;9.97;;;6.63;;
11791;SDS011;5953;52.372;9.918;2023-09-07T03:59:17;8.33;;;5.93;;
11791;SDS011;5953;52.372;9.918;2023-09-07T04:01:45;7.47;;;6.37;;
11791;SDS011;5953;52.372;9.918;2023-09-07T04:04:13;7.27;;;6.57;;
11791;SDS011;5953;52.372;9.918;2023-09-07T04:06:41;7.37;;;5.67;;
11791;SDS011;5953;52.372;9.918;2023-09-07T04:09:09;7.80;;;6.27;;
11791;SDS011;5953;52.372;9.918;2023-09-07T04:11:37;7.83;;;6.03;;
11791;SDS011;5953;52.372;9.918;2023-09-07T04:14:05;9.27;;;6.93;;
11791;SDS011;5953;52.372;9.918;2023-09-07T04:16:34;7.77;;;6.60;;
11791;SDS011;5953;52.372;9.918;2023-09-07T04:19:02;7.40;;;5.87;;
11791;SDS011;5953;52.372;9.918;2023-09-07T04:21:30;6.93;;;5.97;;
11791;SDS011;5953;52.372;9.918;2023-09-07T04:23:58;7.77;;;6.70;;
11791;SDS011;5953;52.372;9.918;2023-09-07T04:26:25;7.77;;;7.07;;
11791;SDS011;5953;52.372;9.918;2023-09-07T04:28:53;8.97;;;6.93;;
11791;SDS011;5953;52.372;9.918;2023-09-07T04:31:21;8.43;;;7.07;;
11791;SDS011;5953;52.372;9.918;2023-09-07T04:33:52;7.77;;;6.97;;
11791;SDS011;5953;52.372;9.918;2023-09-07T04:36:20;9.37;;;7.23;;
11791;SDS011;5953;52.372;9.918;2023-09-07T04:38:48;7.87;;;6.70;;
11791;SDS011;5953;52.372;9.918;2023-09-07T04:41:16;8.47;;;6.57;;
11791;SDS011;5953;52.372;9.918;2023-09-07T04:43:44;8.93;;;6.87;;
11791;SDS011;5953;52.372;9.918;2023-09-07T04:46:12;10.00;;;7.07;;
11791;SDS011;5953;52.372;9.918;2023-09-07T04:48:41;8.77;;;7.60;;
11791;SDS011;5953;52.372;9.918;2023-09-07T04:51:11;8.13;;;6.77;;
11791;SDS011;5953;52.372;9.918;2023-09-07T04:53:39;10.57;;;7.63;;
11791;SDS011;5953;52.372;9.918;2023-09-07T04:56:07;9.40;;;7.47;;
11791;SDS011;5953;52.372;9.918;2023-09-07T04:58:35;8.50;;;7.23;;
11791;SDS011;5953;52.372;9.918;2023-09-07T05:01:03;10.80;;;8.50;;
11791;SDS011;5953;52.372;9.918;2023-09-07T05:03:32;9.53;;;7.00;;
11791;SDS011;5953;52.372;9.918;2023-09-07T05:06:00;8.73;;;7.17;;
11791;SDS011;5953;52.372;9.918;2023-09-07T05:08:30;8.63;;;7.03;;
11791;SDS011;5953;52.372;9.918;2023-09-07T05:11:00;7.90;;;7.10;;
11791;SDS011;5953;52.372;9.918;2023-09-07T05:13:30;10.00;;;7.67;;
11791;SDS011;5953;52.372;9.918;2023-09-07T05:15:59;8.40;;;7.60;;
11791;SDS011;5953;52.372;9.918;2023-09-07T05:18:27;8.53;;;6.97;;
11791;SDS011;5953;52.372;9.918;2023-09-07T05:20:57;10.03;;;8.07;;
11791;SDS011;5953;52.372;9.918;2023-09-07T05:23:26;10.53;;;7.40;;
11791;SDS011;5953;52.372;9.918;2023-09-07T05:25:55;9.77;;;7.47;;
11791;SDS011;5953;52.372;9.918;2023-09-07T05:28:23;9.63;;;7.57;;
11791;SDS011;5953;52.372;9.918;2023-09-07T05:30:51;11.07;;;8.23;;
11791;SDS011;5953;52.372;9.918;2023-09-07T05:33:19;11.20;;;8.33;;
11791;SDS011;5953;52.372;9.918;2023-09-07T05:35:46;8.70;;;7.80;;
11791;SDS011;5953;52.372;9.918;2023-09-07T05:38:14;12.47;;;8.27;;
11791;SDS011;5953;52.372;9.918;2023-09-07T05:40:42;10.37;;;7.57;;
11791;SDS011;5953;52.372;9.918;2023-09-07T05:43:13;9.70;;;8.23;;
11791;SDS011;5953;52.372;9.918;2023-09-07T05:45:40;10.33;;;8.73;;
11791;SDS011;5953;52.372;9.918;2023-09-07T05:48:09;8.80;;;7.80;;
11791;SDS011;5953;52.372;9.918;2023-09-07T05:50:37;10.80;;;7.37;;
11791;SDS011;5953;52.372;9.918;2023-09-07T05:53:05;8.80;;;7.47;;
11791;SDS011;5953;52.372;9.918;2023-09-07T05:55:33;9.60;;;7.40;;
11791;SDS011;5953;52.372;9.918;2023-09-07T05:58:03;8.70;;;7.20;;
11791;SDS011;5953;52.372;9.918;2023-09-07T06:00:33;11.83;;;8.63;;
11791;SDS011;5953;52.372;9.918;2023-09-07T06:03:01;10.83;;;8.60;;
11791;SDS011;5953;52.372;9.918;2023-09-07T06:05:30;9.23;;;7.93;;
11791;SDS011;5953;52.372;9.918;2023-09-07T06:07:58;12.00;;;8.17;;
11791;SDS011;5953;52.372;9.918;2023-09-07T06:10:27;10.97;;;7.67;;
11791;SDS011;5953;52.372;9.918;2023-09-07T06:12:56;12.97;;;8.60;;
11791;SDS011;5953;52.372;9.918;2023-09-07T06:15:26;9.73;;;8.30;;
11791;SDS011;5953;52.372;9.918;2023-09-07T06:17:56;10.17;;;8.53;;
11791;SDS011;5953;52.372;9.918;2023-09-07T06:20:24;8.83;;;7.97;;
11791;SDS011;5953;52.372;9.918;2023-09-07T06:22:52;9.67;;;8.53;;
11791;SDS011;5953;52.372;9.918;2023-09-07T06:25:19;10.10;;;9.00;;
11791;SDS011;5953;52.372;9.918;2023-09-07T06:27:48;10.10;;;7.90;;
11791;SDS011;5953;52.372;9.918;2023-09-07T06:30:16;9.57;;;8.20;;
11791;SDS011;5953;52.372;9.918;2023-09-07T06:32:43;10.33;;;8.03;;
11791;SDS011;5953;52.372;9.918;2023-09-07T06:35:13;8.93;;;7.60;;
11791;SDS011;5953;52.372;9.918;2023-09-07T06:37:41;9.60;;;8.57;;
11791;SDS011;5953;52.372;9.918;2023-09-07T06:40:10;14.50;;;8.33;;
11791;SDS011;5953;52.372;9.918;2023-09-07T06:42:40;10.90;;;8.23;;
11791;SDS011;5953;52.372;9.918;2023-09-07T06:45:08;11.47;;;8.17;;
11791;SDS011;5953;52.372;9.918;2023-09-07T06:47:36;9.93;;;8.10;;
11791;SDS011;5953;52.372;9.918;2023-09-07T06:50:04;8.73;;;7.80;;
11791;SDS011;5953;52.372;9.918;2023-09-07T06:52:34;12.33;;;8.43;;
11791;SDS011;5953;52.372;9.918;2023-09-07T06:55:02;10.27;;;7.47;;
11791;SDS011;5953;52.372;9.918;2023-09-07T06:57:31;10.43;;;8.00;;
11791;SDS011;5953;52.372;9.918;2023-09-07T07:00:02;11.77;;;7.93;;
11791;SDS011;5953;52.372;9.918;2023-09-07T07:02:32;10.53;;;7.93;;
11791;SDS011;5953;52.372;9.918;2023-09-07T07:05:00;14.25;;;7.93;;
11791;SDS011;5953;52.372;9.918;2023-09-07T07:07:29;9.27;;;7.83;;
11791;SDS011;5953;52.372;9.918;2023-09-07T07:09:58;12.25;;;8.43;;
11791;SDS011;5953;52.372;9.918;2023-09-07T07:12:26;11.47;;;8.40;;
11791;SDS011;5953;52.372;9.918;2023-09-07T07:14:54;9.67;;;7.83;;
11791;SDS011;5953;52.372;9.918;2023-09-07T07:17:21;12.68;;;7.55;;
11791;SDS011;5953;52.372;9.918;2023-09-07T07:19:49;10.00;;;7.68;;
11791;SDS011;5953;52.372;9.918;2023-09-07T07:22:17;9.55;;;7.60;;
11791;SDS011;5953;52.372;9.918;2023-09-07T07:24:47;8.23;;;6.88;;
11791;SDS011;5953;52.372;9.918;2023-09-07T07:27:16;9.57;;;7.82;;
11791;SDS011;5953;52.372;9.918;2023-09-07T07:29:44;10.02;;;7.53;;
11791;SDS011;5953;52.372;9.918;2023-09-07T07:32:12;8.23;;;7.22;;
11791;SDS011;5953;52.372;9.918;2023-09-07T07:34:40;9.45;;;6.47;;
11791;SDS011;5953;52.372;9.918;2023-09-07T07:37:07;9.88;;;7.65;;
11791;SDS011;5953;52.372;9.918;2023-09-07T07:39:35;8.80;;;7.10;;
11791;SDS011;5953;52.372;9.918;2023-09-07T07:42:03;8.38;;;6.93;;
11791;SDS011;5953;52.372;9.918;2023-09-07T07:44:33;7.90;;;6.95;;
11791;SDS011;5953;52.372;9.918;2023-09-07T07:47:01;7.90;;;7.15;;
11791;SDS011;5953;52.372;9.918;2023-09-07T07:49:29;8.15;;;6.38;;
11791;SDS011;5953;52.372;9.918;2023-09-07T07:51:58;7.97;;;6.13;;
11791;SDS011;5953;52.372;9.918;2023-09-07T07:54:26;7.25;;;6.43;;
11791;SDS011;5953;52.372;9.918;2023-09-07T07:56:55;8.35;;;6.88;;
11791;SDS011;5953;52.372;9.918;2023-09-07T07:59:23;9.15;;;6.40;;
11791;SDS011;5953;52.372;9.918;2023-09-07T08:01:52;9.32;;;6.25;;
11791;SDS011;5953;52.372;9.918;2023-09-07T08:04:19;8.80;;;6.38;;
11791;SDS011;5953;52.372;9.918;2023-09-07T08:06:47;7.35;;;6.35;;
11791;SDS011;5953;52.372;9.918;2023-09-07T08:09:15;6.60;;;5.90;;
11791;SDS011;5953;52.372;9.918;2023-09-07T08:11:43;7.07;;;5.68;;
11791;SDS011;5953;52.372;9.918;2023-09-07T08:14:11;7.22;;;6.43;;
11791;SDS011;5953;52.372;9.918;2023-09-07T08:16:38;6.88;;;6.10;;
11791;SDS011;5953;52.372;9.918;2023-09-07T08:19:08;10.73;;;6.05;;
11791;SDS011;5953;52.372;9.918;2023-09-07T08:21:36;9.48;;;6.10;;
11791;SDS011;5953;52.372;9.918;2023-09-07T08:24:04;8.50;;;5.82;;
11791;SDS011;5953;52.372;9.918;2023-09-07T08:26:32;6.90;;;5.80;;
11791;SDS011;5953;52.372;9.918;2023-09-07T08:29:00;7.90;;;5.13;;
11791;SDS011;5953;52.372;9.918;2023-09-07T08:31:31;6.20;;;5.60;;
11791;SDS011;5953;52.372;9.918;2023-09-07T08:34:00;9.77;;;5.75;;
11791;SDS011;5953;52.372;9.918;2023-09-07T08:36:31;7.82;;;5.15;;
11791;SDS011;5953;52.372;9.918;2023-09-07T08:39:00;5.65;;;5.05;;
11791;SDS011;5953;52.372;9.918;2023-09-07T08:41:34;6.03;;;5.40;;
11791;SDS011;5953;52.372;9.918;2023-09-07T08:44:25;9.90;;;5.57;;
11791;SDS011;5953;52.372;9.918;2023-09-07T08:46:54;10.07;;;5.18;;
11791;SDS011;5953;52.372;9.918;2023-09-07T08:49:23;7.75;;;6.10;;
11791;SDS011;5953;52.372;9.918;2023-09-07T08:51:52;9.10;;;5.50;;
11791;SDS011;5953;52.372;9.918;2023-09-07T08:54:25;8.68;;;5.80;;
11791;SDS011;5953;52.372;9.918;2023-09-07T08:56:53;7.22;;;5.88;;
11791;SDS011;5953;52.372;9.918;2023-09-07T08:59:23;6.53;;;5.75;;
11791;SDS011;5953;52.372;9.918;2023-09-07T09:01:55;6.95;;;6.20;;
11791;SDS011;5953;52.372;9.918;2023-09-07T09:04:25;6.45;;;5.43;;
11791;SDS011;5953;52.372;9.918;2023-09-07T09:06:55;9.60;;;5.93;;
11791;SDS011;5953;52.372;9.918;2023-09-07T09:09:25;7.95;;;5.25;;
11791;SDS011;5953;52.372;9.918;2023-09-07T09:11:53;7.35;;;5.53;;
11791;SDS011;5953;52.372;9.918;2023-09-07T09:14:21;12.35;;;5.03;;
11791;SDS011;5953;52.372;9.918;2023-09-07T09:16:49;11.05;;;5.20;;
11791;SDS011;5953;52.372;9.918;2023-09-07T09:19:18;7.40;;;5.05;;
11791;SDS011;5953;52.372;9.918;2023-09-07T09:21:45;11.88;;;5.72;;
11791;SDS011;5953;52.372;9.918;2023-09-07T09:24:16;8.63;;;5.45;;
11791;SDS011;5953;52.372;9.918;2023-09-07T09:26:44;13.85;;;6.47;;
11791;SDS011;5953;52.372;9.918;2023-09-07T09:29:12;7.05;;;5.15;;
11791;SDS011;5953;52.372;9.918;2023-09-07T09:31:41;7.18;;;4.82;;
11791;SDS011;5953;52.372;9.918;2023-09-07T09:34:09;9.02;;;5.63;;
11791;SDS011;5953;52.372;9.918;2023-09-07T09:36:38;8.00;;;5.10;;
11791;SDS011;5953;52.372;9.918;2023-09-07T09:39:09;7.32;;;5.15;;
11791;SDS011;5953;52.372;9.918;2023-09-07T09:41:38;7.45;;;5.47;;
11791;SDS011;5953;52.372;9.918;2023-09-07T09:44:06;7.35;;;5.18;;
11791;SDS011;5953;52.372;9.918;2023-09-07T09:46:35;5.95;;;5.18;;
11791;SDS011;5953;52.372;9.918;2023-09-07T09:49:05;6.47;;;5.22;;
11791;SDS011;5953;52.372;9.918;2023-09-07T09:51:38;7.13;;;5.38;;
11791;SDS011;5953;52.372;9.918;2023-09-07T09:54:10;7.53;;;5.35;;
11791;SDS011;5953;52.372;9.918;2023-09-07T09:56:41;8.88;;;5.28;;
11791;SDS011;5953;52.372;9.918;2023-09-07T09:59:08;7.32;;;4.80;;
11791;SDS011;5953;52.372;9.918;2023-09-07T10:01:38;6.07;;;5.15;;
11791;SDS011;5953;52.372;9.918;2023-09-07T10:04:10;6.32;;;5.43;;
11791;SDS011;5953;52.372;9.918;2023-09-07T10:06:49;5.50;;;4.97;;
11791;SDS011;5953;52.372;9.918;2023-09-07T10:09:18;10.88;;;5.63;;
11791;SDS011;5953;52.372;9.918;2023-09-07T10:11:51;7.25;;;4.88;;
11791;SDS011;5953;52.372;9.918;2023-09-07T10:14:20;5.85;;;4.85;;
11791;SDS011;5953;52.372;9.918;2023-09-07T10:16:49;8.27;;;5.05;;
11791;SDS011;5953;52.372;9.918;2023-09-07T10:19:19;6.88;;;4.85;;
11791;SDS011;5953;52.372;9.918;2023-09-07T10:21:51;5.65;;;5.05;;
11791;SDS011;5953;52.372;9.918;2023-09-07T10:24:23;5.40;;;4.90;;
11791;SDS011;5953;52.372;9.918;2023-09-07T10:27:03;7.63;;;5.40;;
11791;SDS011;5953;52.372;9.918;2023-09-07T10:29:40;6.95;;;5.30;;
11791;SDS011;5953;52.372;9.918;2023-09-07T10:32:08;8.13;;;4.97;;
11791;SDS011;5953;52.372;9.918;2023-09-07T10:34:38;6.85;;;5.25;;
11791;SDS011;5953;52.372;9.918;2023-09-07T10:37:09;7.93;;;4.82;;
11791;SDS011;5953;52.372;9.918;2023-09-07T10:39:40;7.85;;;5.10;;
11791;SDS011;5953;52.372;9.918;2023-09-07T10:42:20;6.53;;;5.20;;
11791;SDS011;5953;52.372;9.918;2023-09-07T10:44:50;8.50;;;5.20;;
11791;SDS011;5953;52.372;9.918;2023-09-07T10:47:18;8.60;;;5.30;;
11791;SDS011;5953;52.372;9.918;2023-09-07T10:49:46;7.55;;;5.10;;
11791;SDS011;5953;52.372;9.918;2023-09-07T10:52:14;7.60;;;5.05;;
11791;SDS011;5953;52.372;9.918;2023-09-07T10:54:42;7.53;;;5.57;;
11791;SDS011;5953;52.372;9.918;2023-09-07T10:57:11;6.25;;;5.25;;
11791;SDS011;5953;52.372;9.918;2023-09-07T10:59:45;5.72;;;5.22;;
11791;SDS011;5953;52.372;9.918;2023-09-07T11:02:13;5.47;;;4.97;;
11791;SDS011;5953;52.372;9.918;2023-09-07T11:04:42;5.13;;;4.63;;
11791;SDS011;5953;52.372;9.918;2023-09-07T11:07:10;5.95;;;5.25;;
11791;SDS011;5953;52.372;9.918;2023-09-07T11:09:39;5.05;;;4.32;;
11791;SDS011;5953;52.372;9.918;2023-09-07T11:12:08;7.30;;;4.80;;
11791;SDS011;5953;52.372;9.918;2023-09-07T11:14:39;6.60;;;4.88;;
11791;SDS011;5953;52.372;9.918;2023-09-07T11:17:08;5.25;;;4.82;;
11791;SDS011;5953;52.372;9.918;2023-09-07T11:19:37;9.13;;;4.82;;
11791;SDS011;5953;52.372;9.918;2023-09-07T11:22:05;5.70;;;5.18;;
11791;SDS011;5953;52.372;9.918;2023-09-07T11:24:34;6.95;;;5.50;;
11791;SDS011;5953;52.372;9.918;2023-09-07T11:27:02;5.85;;;4.85;;
11791;SDS011;5953;52.372;9.918;2023-09-07T11:29:31;8.32;;;5.43;;
11791;SDS011;5953;52.372;9.918;2023-09-07T11:32:05;4.63;;;3.92;;
11791;SDS011;5953;52.372;9.918;2023-09-07T11:34:34;5.60;;;4.72;;
11791;SDS011;5953;52.372;9.918;2023-09-07T11:37:03;7.38;;;4.97;;
11791;SDS011;5953;52.372;9.918;2023-09-07T11:39:31;7.22;;;4.75;;
11791;SDS011;5953;52.372;9.918;2023-09-07T11:41:59;6.25;;;4.45;;
11791;SDS011;5953;52.372;9.918;2023-09-07T11:44:26;7.40;;;4.30;;
11791;SDS011;5953;52.372;9.918;2023-09-07T11:46:54;6.10;;;4.80;;
11791;SDS011;5953;52.372;9.918;2023-09-07T11:49:22;5.72;;;4.72;;
11791;SDS011;5953;52.372;9.918;2023-09-07T11:51:52;5.00;;;4.22;;
11791;SDS011;5953;52.372;9.918;2023-09-07T11:54:20;4.97;;;4.38;;
11791;SDS011;5953;52.372;9.918;2023-09-07T11:56:49;5.32;;;4.53;;
11791;SDS011;5953;52.372;9.918;2023-09-07T11:59:17;5.03;;;4.47;;
11791;SDS011;5953;52.372;9.918;2023-09-07T12:01:44;6.05;;;4.50;;
11791;SDS011;5953;52.372;9.918;2023-09-07T12:04:12;5.30;;;4.80;;
11791;SDS011;5953;52.372;9.918;2023-09-07T12:06:41;5.97;;;4.75;;
11791;SDS011;5953;52.372;9.918;2023-09-07T12:09:10;5.63;;;4.35;;
11791;SDS011;5953;52.372;9.918;2023-09-07T12:11:38;6.78;;;4.95;;
11791;SDS011;5953;52.372;9.918;2023-09-07T12:14:08;7.53;;;4.55;;
11791;SDS011;5953;52.372;9.918;2023-09-07T12:16:36;5.20;;;4.70;;
11791;SDS011;5953;52.372;9.918;2023-09-07T12:19:04;5.38;;;4.25;;
11791;SDS011;5953;52.372;9.918;2023-09-07T12:21:32;5.22;;;3.70;;
11791;SDS011;5953;52.372;9.918;2023-09-07T12:23:59;10.90;;;4.28;;
11791;SDS011;5953;52.372;9.918;2023-09-07T12:26:31;5.75;;;3.60;;
11791;SDS011;5953;52.372;9.918;2023-09-07T12:28:59;4.70;;;4.30;;
11791;SDS011;5953;52.372;9.918;2023-09-07T12:31:27;5.57;;;5.03;;
11791;SDS011;5953;52.372;9.918;2023-09-07T12:33:56;7.40;;;4.22;;
11791;SDS011;5953;52.372;9.918;2023-09-07T12:36:24;4.63;;;4.20;;
11791;SDS011;5953;52.372;9.918;2023-09-07T12:38:56;6.57;;;4.32;;
11791;SDS011;5953;52.372;9.918;2023-09-07T12:41:27;4.65;;;4.07;;
11791;SDS011;5953;52.372;9.918;2023-09-07T12:43:56;8.48;;;4.72;;
11791;SDS011;5953;52.372;9.918;2023-09-07T12:46:25;5.53;;;4.00;;
11791;SDS011;5953;52.372;9.918;2023-09-07T12:48:53;4.60;;;4.20;;
11791;SDS011;5953;52.372;9.918;2023-09-07T12:51:20;4.90;;;4.38;;
11791;SDS011;5953;52.372;9.918;2023-09-07T12:53:48;5.18;;;4.68;;
11791;SDS011;5953;52.372;9.918;2023-09-07T12:56:17;4.50;;;4.10;;
11791;SDS011;5953;52.372;9.918;2023-09-07T12:58:45;7.93;;;3.90;;
11791;SDS011;5953;52.372;9.918;2023-09-07T13:01:14;4.75;;;4.18;;
11791;SDS011;5953;52.372;9.918;2023-09-07T13:03:42;6.00;;;4.45;;
11791;SDS011;5953;52.372;9.918;2023-09-07T13:06:10;6.32;;;4.43;;
11791;SDS011;5953;52.372;9.918;2023-09-07T13:08:38;6.07;;;4.05;;
11791;SDS011;5953;52.372;9.918;2023-09-07T13:11:06;5.97;;;3.90;;
11791;SDS011;5953;52.372;9.918;2023-09-07T13:13:34;4.85;;;3.90;;
11791;SDS011;5953;52.372;9.918;2023-09-07T13:16:02;6.63;;;4.38;;
11791;SDS011;5953;52.372;9.918;2023-09-07T13:18:31;5.60;;;4.30;;
11791;SDS011;5953;52.372;9.918;2023-09-07T13:20:59;5.40;;;3.85;;
11791;SDS011;5953;52.372;9.918;2023-09-07T13:23:27;4.57;;;4.13;;
11791;SDS011;5953;52.372;9.918;2023-09-07T13:25:56;7.70;;;4.72;;
11791;SDS011;5953;52.372;9.918;2023-09-07T13:28:24;4.03;;;3.72;;
11791;SDS011;5953;52.372;9.918;2023-09-07T13:30:52;4.38;;;3.97;;
11791;SDS011;5953;52.372;9.918;2023-09-07T13:33:20;5.45;;;3.80;;
11791;SDS011;5953;52.372;9.918;2023-09-07T13:35:49;5.50;;;4.00;;
11791;SDS011;5953;52.372;9.918;2023-09-07T13:38:17;4.55;;;3.83;;
11791;SDS011;5953;52.372;9.918;2023-09-07T13:40:45;6.60;;;4.75;;
11791;SDS011;5953;52.372;9.918;2023-09-07T13:43:13;4.68;;;4.28;;
11791;SDS011;5953;52.372;9.918;2023-09-07T13:45:41;6.75;;;4.30;;
11791;SDS011;5953;52.372;9.918;2023-09-07T13:48:10;4.68;;;4.30;;
11791;SDS011;5953;52.372;9.918;2023-09-07T13:50:38;4.88;;;4.10;;
11791;SDS011;5953;52.372;9.918;2023-09-07T13:53:07;7.78;;;4.13;;
11791;SDS011;5953;52.372;9.918;2023-09-07T13:55:35;4.18;;;3.72;;
11791;SDS011;5953;52.372;9.918;2023-09-07T13:58:06;6.60;;;4.85;;
11791;SDS011;5953;52.372;9.918;2023-09-07T14:00:33;4.20;;;3.90;;
11791;SDS011;5953;52.372;9.918;2023-09-07T14:03:01;5.03;;;4.60;;
11791;SDS011;5953;52.372;9.918;2023-09-07T14:05:29;5.75;;;4.10;;
11791;SDS011;5953;52.372;9.918;2023-09-07T14:07:57;6.07;;;3.92;;
11791;SDS011;5953;52.372;9.918;2023-09-07T14:10:26;5.72;;;4.68;;
11791;SDS011;5953;52.372;9.918;2023-09-07T14:12:54;4.40;;;3.88;;
11791;SDS011;5953;52.372;9.918;2023-09-07T14:15:22;3.97;;;3.67;;
11791;SDS011;5953;52.372;9.918;2023-09-07T14:17:50;5.90;;;4.40;;
11791;SDS011;5953;52.372;9.918;2023-09-07T14:20:18;5.13;;;4.70;;
11791;SDS011;5953;52.372;9.918;2023-09-07T14:22:45;4.60;;;3.63;;
11791;SDS011;5953;52.372;9.918;2023-09-07T14:25:13;4.82;;;4.10;;
11791;SDS011;5953;52.372;9.918;2023-09-07T14:27:44;4.43;;;3.90;;
11791;SDS011;5953;52.372;9.918;2023-09-07T14:30:12;4.55;;;4.15;;
11791;SDS011;5953;52.372;9.918;2023-09-07T14:32:40;4.10;;;3.80;;
11791;SDS011;5953;52.372;9.918;2023-09-07T14:35:07;8.13;;;4.25;;
11791;SDS011;5953;52.372;9.918;2023-09-07T14:37:37;6.03;;;3.75;;
11791;SDS011;5953;52.372;9.918;2023-09-07T14:40:06;4.22;;;3.83;;
11791;SDS011;5953;52.372;9.918;2023-09-07T14:42:34;7.10;;;3.97;;
11791;SDS011;5953;52.372;9.918;2023-09-07T14:45:05;5.05;;;4.35;;
11791;SDS011;5953;52.372;9.918;2023-09-07T14:47:33;4.78;;;3.80;;
11791;SDS011;5953;52.372;9.918;2023-09-07T14:50:01;4.70;;;4.13;;
11791;SDS011;5953;52.372;9.918;2023-09-07T14:52:29;4.97;;;3.83;;
11791;SDS011;5953;52.372;9.918;2023-09-07T14:54:59;4.05;;;3.67;;
11791;SDS011;5953;52.372;9.918;2023-09-07T14:57:26;4.75;;;3.80;;
11791;SDS011;5953;52.372;9.918;2023-09-07T14:59:54;4.97;;;3.70;;
11791;SDS011;5953;52.372;9.918;2023-09-07T15:02:23;5.63;;;4.05;;
11791;SDS011;5953;52.372;9.918;2023-09-07T15:04:51;3.78;;;3.38;;
11791;SDS011;5953;52.372;9.918;2023-09-07T15:07:19;4.45;;;4.00;;
11791;SDS011;5953;52.372;9.918;2023-09-07T15:09:48;6.65;;;3.47;;
11791;SDS011;5953;52.372;9.918;2023-09-07T15:12:17;4.63;;;3.80;;